createdAt,value
2022-08-10T00:02:34.527Z,13.89
2022-08-10T00:05:05.921Z,13.54
2022-08-10T00:07:51.784Z,13.42
2022-08-10T00:10:26.716Z,13.36
2022-08-10T00:13:01.802Z,13.43
2022-08-10T00:15:52.511Z,13.63
2022-08-10T00:18:35.907Z,13.77
2022-08-10T00:21:16.351Z,13.73
2022-08-10T00:24:01.617Z,13.46
2022-08-10T00:27:57.933Z,13.43
2022-08-10T00:29:43.817Z,13.26
2022-08-10T00:32:13.673Z,13.31
2022-08-10T00:34:56.333Z,13.34
2022-08-10T00:37:34.280Z,13.57
2022-08-10T00:40:05.526Z,13.48
2022-08-10T00:43:01.636Z,13.33
2022-08-10T00:45:32.328Z,13.31
2022-08-10T00:48:05.091Z,13.20
2022-08-10T00:50:59.730Z,13.00
2022-08-10T00:53:34.537Z,13.19
2022-08-10T00:56:35.118Z,13.03
2022-08-10T00:59:09.445Z,13.38
2022-08-10T01:02:08.538Z,13.33
2022-08-10T01:05:00.081Z,13.58
2022-08-10T01:07:46.143Z,13.47
2022-08-10T01:10:32.412Z,13.36
2022-08-10T01:13:11.577Z,13.35
2022-08-10T01:15:59.230Z,13.34
2022-08-10T01:18:40.821Z,13.35
2022-08-10T01:21:57.225Z,13.45
2022-08-10T01:25:02.897Z,13.31
2022-08-10T01:27:38.450Z,13.22
2022-08-10T01:30:10.622Z,13.35
2022-08-10T01:32:58.472Z,13.19
2022-08-10T01:35:38.730Z,12.98
2022-08-10T01:38:12.363Z,13.26
2022-08-10T01:40:47.117Z,13.40
2022-08-10T01:43:21.081Z,13.32
2022-08-10T01:45:54.993Z,13.40
2022-08-10T01:48:32.562Z,13.20
2022-08-10T01:51:08.838Z,12.97
2022-08-10T01:53:41.870Z,13.23
2022-08-10T01:56:13.670Z,13.32
2022-08-10T01:58:45.386Z,13.09
2022-08-10T02:01:25.045Z,13.11
2022-08-10T02:04:03.609Z,12.83
2022-08-10T02:06:38.580Z,12.60
2022-08-10T02:09:21.400Z,12.63
2022-08-10T02:12:08.543Z,12.85
2022-08-10T02:14:46.825Z,13.03
2022-08-10T02:17:59.989Z,13.11
2022-08-10T02:20:17.289Z,12.87
2022-08-10T02:22:52.153Z,13.16
2022-08-10T02:25:39.896Z,13.01
2022-08-10T02:28:27.382Z,13.07
2022-08-10T02:31:06.088Z,12.80
2022-08-10T02:33:39.539Z,12.72
2022-08-10T02:36:31.011Z,12.75
2022-08-10T02:39:05.532Z,12.88
2022-08-10T02:45:01.911Z,12.77
2022-08-10T02:45:20.243Z,13.05
2022-08-10T02:47:51.567Z,12.85
2022-08-10T02:50:26.921Z,13.05
2022-08-10T02:53:02.879Z,12.96
2022-08-10T02:55:39.140Z,13.03
2022-08-10T02:58:18.271Z,12.98
2022-08-10T03:00:49.867Z,12.86
2022-08-10T03:03:22.065Z,12.93
2022-08-10T03:05:55.796Z,13.00
2022-08-10T03:08:27.254Z,12.79
2022-08-10T03:10:57.791Z,12.70
2022-08-10T03:13:27.673Z,13.08
2022-08-10T03:15:57.407Z,12.80
2022-08-10T03:18:27.337Z,12.83
2022-08-10T03:21:00.794Z,12.64
2022-08-10T03:23:30.825Z,12.41
2022-08-10T03:26:01.141Z,12.72
2022-08-10T03:28:31.683Z,13.01
2022-08-10T03:31:02.716Z,12.86
2022-08-10T03:33:33.547Z,12.76
2022-08-10T03:36:40.144Z,12.88
2022-08-10T03:38:53.546Z,13.10
2022-08-10T03:41:30.824Z,13.07
2022-08-10T03:44:06.075Z,13.03
2022-08-10T03:46:37.033Z,13.02
2022-08-10T03:49:07.184Z,12.99
2022-08-10T03:51:38.016Z,12.67
2022-08-10T03:54:11.199Z,12.84
2022-08-10T03:56:42.062Z,12.84
2022-08-10T03:59:12.731Z,12.61
2022-08-10T04:02:46.986Z,12.69
2022-08-10T04:04:30.267Z,12.76
2022-08-10T04:07:06.657Z,12.46
2022-08-10T04:09:53.680Z,12.44
2022-08-10T04:12:24.073Z,12.48
2022-08-10T04:14:54.021Z,12.40
2022-08-10T04:18:03.409Z,12.63
2022-08-10T04:20:19.628Z,12.57
2022-08-10T04:22:52.946Z,12.64
2022-08-10T04:25:25.415Z,12.52
2022-08-10T04:27:54.801Z,12.87
2022-08-10T04:30:23.099Z,12.95
2022-08-10T04:32:55.291Z,13.20
2022-08-10T04:35:25.104Z,13.15
2022-08-10T04:37:56.533Z,13.31
2022-08-10T04:40:29.967Z,13.20
2022-08-10T04:43:12.251Z,13.26
2022-08-10T04:45:47.547Z,13.40
2022-08-10T04:48:43.249Z,13.32
2022-08-10T04:51:04.583Z,13.29
2022-08-10T04:54:04.411Z,13.44
2022-08-10T04:56:31.758Z,13.69
2022-08-10T04:59:01.021Z,13.54
2022-08-10T05:02:12.504Z,13.58
2022-08-10T05:04:36.054Z,13.94
2022-08-10T05:07:08.560Z,14.02
2022-08-10T05:10:03.210Z,13.89
2022-08-10T05:12:30.185Z,14.03
2022-08-10T05:14:58.593Z,14.13
2022-08-10T05:17:28.712Z,14.22
2022-08-10T05:20:03.569Z,14.14
2022-08-10T05:22:37.040Z,14.32
2022-08-10T05:25:09.023Z,14.37
2022-08-10T05:27:39.915Z,14.58
2022-08-10T05:30:09.620Z,14.62
2022-08-10T05:32:57.472Z,14.61
2022-08-10T05:35:27.652Z,14.81
2022-08-10T05:38:10.741Z,14.90
2022-08-10T05:40:47.696Z,14.93
2022-08-10T05:43:19.530Z,15.00
2022-08-10T05:46:17.005Z,15.20
2022-08-10T05:48:57.046Z,15.25
2022-08-10T05:51:27.771Z,15.21
2022-08-10T05:54:00.959Z,15.43
2022-08-10T05:56:55.249Z,15.62
2022-08-10T06:00:29.306Z,15.63
2022-08-10T06:02:33.987Z,15.82
2022-08-10T06:05:07.291Z,15.82
2022-08-10T06:07:38.485Z,15.99
2022-08-10T06:10:31.215Z,16.32
2022-08-10T06:13:27.047Z,16.81
2022-08-10T06:16:07.691Z,16.98
2022-08-10T06:18:37.810Z,17.57
2022-08-10T06:21:10.106Z,17.86
2022-08-10T06:23:41.428Z,18.25
2022-08-10T06:26:21.395Z,18.82
2022-08-10T06:29:24.458Z,19.41
2022-08-10T06:32:01.110Z,19.00
2022-08-10T06:34:33.572Z,19.58
2022-08-10T06:37:05.169Z,20.01
2022-08-10T06:39:36.212Z,20.41
2022-08-10T06:42:15.802Z,20.49
2022-08-10T06:45:02.893Z,20.67
2022-08-10T06:47:48.145Z,20.49
2022-08-10T06:50:44.627Z,20.70
2022-08-10T06:53:17.550Z,21.05
2022-08-10T06:55:56.558Z,21.00
2022-08-10T06:58:38.135Z,21.82
2022-08-10T07:01:15.015Z,21.90
2022-08-10T07:04:13.026Z,22.32
2022-08-10T07:06:47.775Z,22.10
2022-08-10T07:09:18.287Z,22.30
2022-08-10T07:11:56.545Z,21.94
2022-08-10T07:14:41.874Z,22.10
2022-08-10T07:17:39.146Z,21.98
2022-08-10T07:20:11.140Z,22.39
2022-08-10T07:23:05.841Z,22.25
2022-08-10T07:25:53.336Z,22.93
2022-08-10T07:28:23.958Z,23.25
2022-08-10T07:30:58.015Z,23.47
2022-08-10T07:33:31.557Z,23.36
2022-08-10T07:36:04.608Z,24.14
2022-08-10T07:38:39.074Z,24.36
2022-08-10T07:41:10.347Z,22.83
2022-08-10T07:43:47.636Z,22.65
2022-08-10T07:46:20.478Z,24.26
2022-08-10T07:49:18.010Z,23.99
2022-08-10T07:51:56.362Z,24.74
2022-08-10T07:54:33.525Z,24.20
2022-08-10T07:57:31.029Z,24.19
2022-08-10T08:00:03.263Z,24.53
2022-08-10T08:02:45.257Z,24.25
2022-08-10T08:05:29.886Z,24.93
2022-08-10T08:08:09.650Z,24.54
2022-08-10T08:10:39.410Z,24.85
2022-08-10T08:13:08.054Z,25.53
2022-08-10T08:16:19.657Z,25.58
2022-08-10T08:18:50.930Z,25.26
2022-08-10T08:24:30.563Z,25.98
2022-08-10T08:24:31.860Z,26.48
2022-08-10T08:27:05.890Z,27.28
2022-08-10T08:29:37.043Z,26.35
2022-08-10T08:32:07.760Z,25.81
2022-08-10T08:34:41.018Z,26.72
2022-08-10T08:38:31.941Z,27.59
2022-08-10T08:40:17.684Z,27.17
2022-08-10T08:43:14.333Z,27.70
2022-08-10T08:46:20.941Z,26.29
2022-08-10T08:50:05.279Z,27.20
2022-08-10T08:52:35.590Z,27.11
2022-08-10T08:56:02.967Z,27.26
2022-08-10T08:58:34.160Z,28.15
2022-08-10T09:01:19.860Z,26.44
2022-08-10T09:04:21.008Z,25.91
2022-08-10T09:07:59.538Z,26.54
2022-08-10T09:10:14.168Z,27.87
2022-08-10T09:12:51.316Z,27.75
2022-08-10T09:15:40.205Z,27.80
2022-08-10T09:18:15.262Z,27.90
2022-08-10T09:20:49.181Z,27.36
2022-08-10T09:24:04.628Z,26.97
2022-08-10T09:26:20.419Z,28.21
2022-08-10T09:29:11.533Z,28.33
2022-08-10T09:31:55.869Z,28.48
2022-08-10T09:36:24.977Z,27.45
2022-08-10T09:38:02.703Z,27.23
2022-08-10T09:41:00.305Z,27.73
2022-08-10T09:43:42.127Z,28.67
2022-08-10T09:46:21.769Z,29.94
2022-08-10T09:49:02.481Z,29.85
2022-08-10T09:51:48.923Z,29.32
2022-08-10T09:54:28.107Z,28.52
2022-08-10T09:57:44.831Z,28.35
2022-08-10T10:00:10.815Z,29.76
2022-08-10T10:02:49.049Z,28.80
2022-08-10T10:05:32.252Z,29.58
2022-08-10T10:08:20.513Z,30.04
2022-08-10T10:11:09.057Z,28.91
2022-08-10T10:14:05.152Z,30.21
2022-08-10T10:17:02.423Z,30.84
2022-08-10T10:19:56.902Z,30.08
2022-08-10T10:22:38.075Z,30.81
2022-08-10T10:25:23.222Z,30.72
2022-08-10T10:28:22.896Z,31.25
2022-08-10T10:31:16.444Z,30.24
2022-08-10T10:34:08.146Z,29.97
2022-08-10T10:36:49.283Z,30.07
2022-08-10T10:39:24.211Z,31.02
2022-08-10T10:42:04.399Z,31.06
2022-08-10T10:44:42.426Z,30.98
2022-08-10T10:47:24.330Z,30.81
2022-08-10T10:50:04.435Z,30.57
2022-08-10T10:52:44.163Z,30.71
2022-08-10T10:55:29.450Z,31.83
2022-08-10T10:58:06.030Z,31.01
2022-08-10T11:00:40.800Z,31.59
2022-08-10T11:03:37.553Z,31.95
2022-08-10T11:06:15.850Z,32.37
2022-08-10T11:08:53.986Z,31.40
2022-08-10T11:12:00.431Z,30.69
2022-08-10T11:14:29.971Z,31.71
2022-08-10T11:17:03.965Z,31.51
2022-08-10T11:20:01.307Z,32.22
2022-08-10T11:22:43.124Z,31.42
2022-08-10T11:25:16.996Z,30.98
2022-08-10T11:27:51.046Z,31.65
2022-08-10T11:30:24.837Z,32.16
2022-08-10T11:33:30.729Z,31.64
2022-08-10T11:36:05.104Z,32.00
2022-08-10T11:39:10.958Z,32.03
2022-08-10T11:42:10.036Z,31.73
2022-08-10T11:44:38.151Z,32.75
2022-08-10T11:47:13.245Z,31.86
2022-08-10T11:49:50.466Z,31.23
2022-08-10T11:52:29.743Z,32.51
2022-08-10T11:55:06.429Z,31.91
2022-08-10T11:57:54.077Z,32.03
2022-08-10T12:00:22.933Z,31.85
2022-08-10T12:02:58.432Z,31.97
2022-08-10T12:05:51.750Z,33.46
2022-08-10T12:10:03.727Z,32.66
2022-08-10T12:11:12.175Z,32.76
2022-08-10T12:14:17.763Z,31.61
2022-08-10T12:16:42.719Z,32.41
2022-08-10T12:19:20.616Z,33.11
2022-08-10T12:21:55.481Z,32.22
2022-08-10T12:24:35.036Z,32.47
2022-08-10T12:27:13.278Z,31.99
2022-08-10T12:29:47.696Z,31.16
2022-08-10T12:32:25.445Z,31.84
2022-08-10T12:35:01.429Z,33.25
2022-08-10T12:37:39.099Z,32.99
2022-08-10T12:40:34.460Z,32.47
2022-08-10T12:44:06.462Z,32.75
2022-08-10T12:46:14.879Z,31.81
2022-08-10T12:48:52.099Z,32.79
2022-08-10T12:51:25.149Z,32.59
2022-08-10T12:53:58.062Z,33.54
2022-08-10T12:56:28.076Z,32.94
2022-08-10T12:59:01.631Z,33.66
2022-08-10T13:02:10.214Z,31.88
2022-08-10T13:04:31.727Z,33.04
2022-08-10T13:07:07.812Z,33.62
2022-08-10T13:09:54.846Z,32.47
2022-08-10T13:12:36.853Z,33.15
2022-08-10T13:15:45.661Z,31.96
2022-08-10T13:18:18.290Z,32.74
2022-08-10T13:20:51.829Z,33.72
2022-08-10T13:23:24.778Z,31.48
2022-08-10T13:25:56.156Z,32.99
2022-08-10T13:28:36.510Z,33.23
2022-08-10T13:31:16.219Z,33.37
2022-08-10T13:34:40.732Z,34.16
2022-08-10T13:36:41.073Z,34.25
2022-08-10T13:39:10.530Z,34.79
2022-08-10T13:41:41.957Z,34.69
2022-08-10T13:44:12.790Z,33.67
2022-08-10T13:46:52.320Z,33.90
2022-08-10T13:49:22.296Z,33.64
2022-08-10T13:51:57.132Z,34.16
2022-08-10T13:54:28.310Z,33.33
2022-08-10T13:56:57.815Z,33.09
2022-08-10T14:00:33.660Z,32.44
2022-08-10T14:02:28.055Z,33.03
2022-08-10T14:05:01.014Z,33.35
2022-08-10T14:07:30.376Z,33.53
2022-08-10T14:10:07.312Z,33.60
2022-08-10T14:12:38.461Z,33.32
2022-08-10T14:15:09.638Z,33.84
2022-08-10T14:17:45.049Z,34.53
2022-08-10T14:20:20.836Z,33.48
2022-08-10T14:22:52.481Z,34.35
2022-08-10T14:25:20.704Z,31.39
2022-08-10T14:28:02.801Z,33.45
2022-08-10T14:30:35.850Z,33.13
2022-08-10T14:33:16.857Z,33.95
2022-08-10T14:36:19.978Z,33.80
2022-08-10T14:38:44.479Z,33.84
2022-08-10T14:42:01.046Z,33.15
2022-08-10T14:44:07.756Z,35.37
2022-08-10T14:46:43.847Z,34.77
2022-08-10T14:49:26.349Z,35.13
2022-08-10T14:52:01.652Z,34.48
2022-08-10T14:54:32.316Z,35.68
2022-08-10T14:57:12.081Z,35.24
2022-08-10T15:00:24.559Z,34.27
2022-08-10T15:02:55.816Z,34.63
2022-08-10T15:05:39.800Z,34.25
2022-08-10T15:08:12.713Z,32.85
2022-08-10T15:10:41.542Z,33.70
2022-08-10T15:13:34.457Z,34.09
2022-08-10T15:16:13.846Z,33.45
2022-08-10T15:18:58.026Z,33.65
2022-08-10T15:21:42.504Z,32.72
2022-08-10T15:24:27.003Z,33.60
2022-08-10T15:26:57.942Z,33.99
2022-08-10T15:29:28.141Z,33.58
2022-08-10T15:32:14.116Z,33.39
2022-08-10T15:35:02.744Z,34.02
2022-08-10T15:37:40.252Z,34.52
2022-08-10T15:40:24.116Z,33.64
2022-08-10T15:43:00.807Z,33.74
2022-08-10T15:45:29.414Z,33.23
2022-08-10T15:48:07.004Z,33.61
2022-08-10T15:50:41.026Z,34.67
2022-08-10T15:53:31.337Z,33.48
2022-08-10T15:56:06.510Z,33.25
2022-08-10T15:58:40.704Z,33.70
2022-08-10T16:02:15.006Z,34.33
2022-08-10T16:04:08.597Z,33.43
2022-08-10T16:06:41.465Z,33.16
2022-08-10T16:10:22.650Z,31.96
2022-08-10T16:12:13.912Z,32.44
2022-08-10T16:14:46.169Z,33.26
2022-08-10T16:17:16.255Z,32.53
2022-08-10T16:19:49.715Z,32.45
2022-08-10T16:22:35.209Z,33.63
2022-08-10T16:25:13.193Z,32.99
2022-08-10T16:27:44.112Z,31.35
2022-08-10T16:30:14.094Z,31.94
2022-08-10T16:32:43.322Z,32.32
2022-08-10T16:35:18.892Z,31.77
2022-08-10T16:37:57.603Z,31.88
2022-08-10T16:40:30.332Z,30.94
2022-08-10T16:43:01.182Z,31.30
2022-08-10T16:45:38.028Z,30.70
2022-08-10T16:48:09.502Z,30.42
2022-08-10T16:50:53.605Z,30.65
2022-08-10T16:53:23.345Z,30.78
2022-08-10T16:55:55.882Z,30.72
2022-08-10T16:58:27.529Z,30.12
2022-08-10T17:01:02.268Z,29.63
2022-08-10T17:04:06.154Z,29.23
2022-08-10T17:06:30.274Z,29.51
2022-08-10T17:09:02.005Z,29.51
2022-08-10T17:11:37.229Z,29.34
2022-08-10T17:14:09.618Z,28.94
2022-08-10T17:16:40.767Z,28.84
2022-08-10T17:19:21.378Z,28.84
2022-08-10T17:21:52.959Z,28.70
2022-08-10T17:24:25.229Z,28.89
2022-08-10T17:26:58.236Z,28.90
2022-08-10T17:29:58.447Z,28.92
2022-08-10T17:32:29.089Z,28.78
2022-08-10T17:35:01.878Z,29.53
2022-08-10T17:37:34.537Z,28.38
2022-08-10T17:40:09.773Z,28.27
2022-08-10T17:42:42.735Z,29.06
2022-08-10T17:45:20.831Z,29.16
2022-08-10T17:48:09.502Z,29.16
2022-08-10T17:50:42.422Z,28.45
2022-08-10T17:53:16.824Z,28.41
2022-08-10T17:55:49.623Z,27.74
2022-08-10T17:58:25.151Z,27.69
2022-08-10T18:00:57.499Z,27.80
2022-08-10T18:03:54.522Z,27.42
2022-08-10T18:06:24.289Z,27.11
2022-08-10T18:08:57.919Z,27.21
2022-08-10T18:11:31.367Z,26.76
2022-08-10T18:14:06.917Z,26.96
2022-08-10T18:16:41.704Z,27.33
2022-08-10T18:19:13.532Z,27.17
2022-08-10T18:21:46.508Z,26.33
2022-08-10T18:24:21.150Z,25.74
2022-08-10T18:26:58.012Z,25.19
2022-08-10T18:29:31.473Z,24.86
2022-08-10T18:32:02.851Z,24.32
2022-08-10T18:34:32.730Z,24.08
2022-08-10T18:37:02.553Z,23.85
2022-08-10T18:39:36.883Z,23.61
2022-08-10T18:42:10.481Z,23.47
2022-08-10T18:44:46.344Z,23.19
2022-08-10T18:47:17.283Z,23.17
2022-08-10T18:49:59.631Z,22.98
2022-08-10T18:52:31.520Z,22.85
2022-08-10T18:55:14.121Z,22.74
2022-08-10T18:57:59.352Z,22.63
2022-08-10T19:00:38.343Z,22.43
2022-08-10T19:03:39.943Z,22.40
2022-08-10T19:06:47.906Z,22.21
2022-08-10T19:09:47.641Z,22.22
2022-08-10T19:12:42.804Z,21.95
2022-08-10T19:15:21.802Z,21.76
2022-08-10T19:18:07.350Z,21.74
2022-08-10T19:20:49.812Z,21.54
2022-08-10T19:23:34.731Z,21.39
2022-08-10T19:26:40.810Z,21.17
2022-08-10T19:29:14.339Z,21.32
2022-08-10T19:32:07.778Z,21.09
2022-08-10T19:34:51.387Z,21.11
2022-08-10T19:37:32.460Z,21.03
2022-08-10T19:40:12.438Z,20.92
2022-08-10T19:42:54.734Z,20.82
2022-08-10T19:46:01.495Z,20.82
2022-08-10T19:48:40.450Z,20.73
2022-08-10T19:51:31.121Z,20.63
2022-08-10T19:54:07.342Z,20.56
2022-08-10T19:56:45.218Z,20.29
2022-08-10T20:00:02.095Z,20.44
2022-08-10T20:02:24.662Z,20.17
2022-08-10T20:05:13.901Z,20.21
2022-08-10T20:07:57.302Z,20.06
2022-08-10T20:10:29.776Z,19.89
2022-08-10T20:13:10.841Z,19.77
2022-08-10T20:15:48.711Z,19.60
2022-08-10T20:18:24.639Z,19.77
2022-08-10T20:21:00.827Z,19.59
2022-08-10T20:23:38.565Z,19.79
2022-08-10T20:26:15.554Z,19.79
2022-08-10T20:28:57.453Z,19.60
2022-08-10T20:31:35.089Z,19.46
2022-08-10T20:34:27.262Z,19.32
2022-08-10T20:37:41.118Z,19.27
2022-08-10T20:40:33.757Z,19.33
2022-08-10T20:43:13.708Z,19.42
2022-08-10T20:46:07.548Z,19.40
2022-08-10T20:48:45.634Z,19.13
2022-08-10T20:51:18.063Z,19.26
2022-08-10T20:53:56.209Z,19.08
2022-08-10T20:56:40.536Z,19.15
2022-08-10T20:59:40.105Z,18.81
2022-08-10T21:02:49.884Z,19.06
2022-08-10T21:08:50.177Z,18.94
2022-08-10T21:11:59.842Z,18.78
2022-08-10T21:15:01.297Z,18.92
2022-08-10T21:18:08.370Z,18.86
2022-08-10T21:20:48.004Z,18.71
2022-08-10T21:23:30.598Z,18.79
2022-08-10T21:26:14.391Z,18.57
2022-08-10T21:32:32.637Z,18.56
2022-08-10T21:35:20.170Z,18.22
2022-08-10T21:38:08.057Z,18.05
2022-08-10T21:41:57.677Z,18.01
2022-08-10T21:45:59.632Z,18.03
2022-08-10T21:52:53.818Z,17.81
2022-08-10T21:56:20.559Z,17.56
2022-08-10T22:03:27.645Z,17.71
2022-08-10T22:18:01.243Z,17.50
2022-08-10T22:21:20.541Z,17.64
2022-08-10T22:24:33.111Z,17.70
2022-08-10T22:27:50.635Z,17.57
2022-08-10T22:30:37.108Z,17.32
2022-08-10T22:33:42.367Z,17.52
2022-08-10T22:36:58.051Z,17.48
2022-08-10T22:40:12.023Z,17.34
2022-08-10T22:43:15.524Z,17.29
2022-08-10T22:46:33.026Z,17.14
2022-08-10T22:49:02.633Z,17.20
2022-08-10T22:51:44.586Z,17.12
2022-08-10T22:54:39.647Z,17.18
2022-08-10T22:57:38.702Z,17.08
2022-08-10T23:00:30.943Z,17.01
2022-08-10T23:03:07.970Z,17.08
2022-08-10T23:05:40.220Z,17.01
2022-08-10T23:08:29.777Z,17.05
2022-08-10T23:11:04.353Z,16.74
2022-08-10T23:13:36.936Z,17.06
2022-08-10T23:16:32.207Z,16.90
2022-08-10T23:19:10.421Z,16.82
2022-08-10T23:22:04.674Z,16.62
2022-08-10T23:24:43.169Z,16.61
2022-08-10T23:27:38.519Z,16.49
2022-08-10T23:30:10.215Z,16.38
2022-08-10T23:32:44.062Z,16.42
2022-08-10T23:36:12.974Z,16.55
2022-08-10T23:38:07.155Z,16.45
2022-08-10T23:40:38.136Z,16.34
2022-08-10T23:43:07.997Z,16.42
2022-08-10T23:45:54.444Z,16.26
2022-08-10T23:48:27.783Z,16.19
2022-08-10T23:51:23.299Z,16.11
2022-08-10T23:54:10.940Z,16.12
2022-08-10T23:56:44.732Z,16.09
2022-08-10T23:59:40.124Z,16.26
